TF2 weather

CLOSED Pointe-au-Chêne Water Aerodrome
Pointe-au-Chêne, Quebec, Canada

Public forecast

Using degrees Celsius for public forecast. Weather courtesy of forecast.io.

Closest aviation weather report (METAR) to Pointe-au-Chêne Water Aerodrome

Closest report is Montreal International (Mirabel) Airport, 29.9 nm (55.5 km) E. Retrieved 2020/08/04 16:39 UTC (0 seconds ago):

CYMX 041639Z 08005KT 2 1/2SM RA BR OVC004 19/19 A2995 RMK ST8 SLP145 DENSITY ALT 800FT

Closest aviation forecast (TAF) to Pointe-au-Chêne Water Aerodrome

Closest forecast is Montreal International (Mirabel) Airport, 29.9 nm (55.5 km) E. Retrieved 2020/08/04 12:42 UTC (4 hours ago):

TAF CYMX 041138Z 0412/0512 05005KT P6SM BKN060 OVC120 TEMPO 0412/0415 P6SM -SHRA OVC040 FM041500 08007KT 5SM SHRA BR BKN007 OVC030 TEMPO 0415/0418 P6SM -RA FEW010 OVC040 FM041800 11007KT 2SM SHRA BR OVC005 PROB30 0418/0423 2SM TSRA BR BKN003 OVC020CB FM042300 10012KT 21/2SM SHRA BR BKN005 OVC015 FM050400 34007KT 6SM -RA BR BKN005 OVC012 FM050600 25008KT P6SM OVC005 BECMG 0508/0510 25010G20KT RMK NXT FCST BY 041800Z